sensor_id;sensor_type;location;lat;lon;timestamp;P1;durP1;ratioP1;P2;durP2;ratioP2
12222;SDS011;6174;49.058;8.524;2022-08-19T00:08:30;13.80;;;12.70;;
12222;SDS011;6174;49.058;8.524;2022-08-19T00:18:18;14.50;;;13.20;;
12222;SDS011;6174;49.058;8.524;2022-08-19T00:21:10;15.23;;;13.83;;
12222;SDS011;6174;49.058;8.524;2022-08-19T00:24:36;15.80;;;14.20;;
12222;SDS011;6174;49.058;8.524;2022-08-19T00:27:36;15.33;;;13.83;;
12222;SDS011;6174;49.058;8.524;2022-08-19T01:12:07;15.43;;;14.03;;
12222;SDS011;6174;49.058;8.524;2022-08-19T01:14:34;15.27;;;13.80;;
12222;SDS011;6174;49.058;8.524;2022-08-19T01:17:03;17.37;;;15.87;;
12222;SDS011;6174;49.058;8.524;2022-08-19T01:19:32;16.57;;;15.07;;
12222;SDS011;6174;49.058;8.524;2022-08-19T01:22:03;17.80;;;16.10;;
12222;SDS011;6174;49.058;8.524;2022-08-19T01:34:57;16.93;;;15.23;;
12222;SDS011;6174;49.058;8.524;2022-08-19T01:37:26;16.63;;;15.00;;
12222;SDS011;6174;49.058;8.524;2022-08-19T01:39:54;16.40;;;15.00;;
12222;SDS011;6174;49.058;8.524;2022-08-19T01:42:21;17.53;;;15.63;;
12222;SDS011;6174;49.058;8.524;2022-08-19T01:44:48;16.30;;;14.97;;
12222;SDS011;6174;49.058;8.524;2022-08-19T01:47:14;15.13;;;13.83;;
12222;SDS011;6174;49.058;8.524;2022-08-19T01:49:41;15.90;;;14.60;;
12222;SDS011;6174;49.058;8.524;2022-08-19T01:52:09;15.60;;;14.03;;
12222;SDS011;6174;49.058;8.524;2022-08-19T01:54:36;15.90;;;14.30;;
12222;SDS011;6174;49.058;8.524;2022-08-19T01:57:05;16.67;;;15.17;;
12222;SDS011;6174;49.058;8.524;2022-08-19T01:59:35;17.30;;;15.80;;
12222;SDS011;6174;49.058;8.524;2022-08-19T02:02:02;16.73;;;15.33;;
12222;SDS011;6174;49.058;8.524;2022-08-19T02:04:32;15.73;;;14.23;;
12222;SDS011;6174;49.058;8.524;2022-08-19T02:06:59;17.10;;;15.70;;
12222;SDS011;6174;49.058;8.524;2022-08-19T02:09:27;17.50;;;15.83;;
12222;SDS011;6174;49.058;8.524;2022-08-19T02:11:54;16.27;;;14.73;;
12222;SDS011;6174;49.058;8.524;2022-08-19T02:14:21;16.67;;;15.13;;
12222;SDS011;6174;49.058;8.524;2022-08-19T02:16:48;17.27;;;15.70;;
12222;SDS011;6174;49.058;8.524;2022-08-19T02:19:15;16.60;;;15.10;;
12222;SDS011;6174;49.058;8.524;2022-08-19T02:21:42;15.90;;;14.50;;
12222;SDS011;6174;49.058;8.524;2022-08-19T02:24:09;16.77;;;15.37;;
12222;SDS011;6174;49.058;8.524;2022-08-19T02:26:38;16.97;;;15.57;;
12222;SDS011;6174;49.058;8.524;2022-08-19T02:29:05;17.33;;;15.73;;
12222;SDS011;6174;49.058;8.524;2022-08-19T02:31:32;17.37;;;15.87;;
12222;SDS011;6174;49.058;8.524;2022-08-19T02:33:59;15.47;;;14.17;;
12222;SDS011;6174;49.058;8.524;2022-08-19T02:36:26;16.73;;;15.33;;
12222;SDS011;6174;49.058;8.524;2022-08-19T02:38:53;16.33;;;14.73;;
12222;SDS011;6174;49.058;8.524;2022-08-19T02:41:20;16.57;;;15.20;;
12222;SDS011;6174;49.058;8.524;2022-08-19T02:43:49;16.53;;;15.10;;
12222;SDS011;6174;49.058;8.524;2022-08-19T02:46:17;15.47;;;14.17;;
12222;SDS011;6174;49.058;8.524;2022-08-19T02:48:47;16.10;;;14.70;;
12222;SDS011;6174;49.058;8.524;2022-08-19T02:51:17;16.17;;;14.63;;
12222;SDS011;6174;49.058;8.524;2022-08-19T02:53:45;15.70;;;14.40;;
12222;SDS011;6174;49.058;8.524;2022-08-19T02:56:12;16.33;;;14.93;;
12222;SDS011;6174;49.058;8.524;2022-08-19T02:58:39;16.47;;;15.17;;
12222;SDS011;6174;49.058;8.524;2022-08-19T03:01:09;16.37;;;14.77;;
12222;SDS011;6174;49.058;8.524;2022-08-19T03:03:37;16.80;;;15.37;;
12222;SDS011;6174;49.058;8.524;2022-08-19T03:06:05;16.17;;;14.77;;
12222;SDS011;6174;49.058;8.524;2022-08-19T03:08:34;16.53;;;15.03;;
12222;SDS011;6174;49.058;8.524;2022-08-19T03:11:02;16.13;;;14.73;;
12222;SDS011;6174;49.058;8.524;2022-08-19T03:13:29;16.50;;;15.10;;
12222;SDS011;6174;49.058;8.524;2022-08-19T03:15:56;16.57;;;15.20;;
12222;SDS011;6174;49.058;8.524;2022-08-19T03:18:24;16.87;;;15.27;;
12222;SDS011;6174;49.058;8.524;2022-08-19T03:20:52;16.70;;;15.10;;
12222;SDS011;6174;49.058;8.524;2022-08-19T03:23:19;16.17;;;14.70;;
12222;SDS011;6174;49.058;8.524;2022-08-19T03:25:47;16.67;;;15.20;;
12222;SDS011;6174;49.058;8.524;2022-08-19T03:28:16;16.87;;;15.23;;
12222;SDS011;6174;49.058;8.524;2022-08-19T03:30:43;16.90;;;15.50;;
12222;SDS011;6174;49.058;8.524;2022-08-19T03:33:22;15.70;;;14.40;;
12222;SDS011;6174;49.058;8.524;2022-08-19T03:36:00;15.87;;;14.53;;
12222;SDS011;6174;49.058;8.524;2022-08-19T03:38:28;15.40;;;14.03;;
12222;SDS011;6174;49.058;8.524;2022-08-19T03:40:55;16.20;;;14.83;;
12222;SDS011;6174;49.058;8.524;2022-08-19T03:43:22;16.10;;;14.80;;
12222;SDS011;6174;49.058;8.524;2022-08-19T03:45:58;17.13;;;15.53;;
12222;SDS011;6174;49.058;8.524;2022-08-19T03:48:26;16.07;;;14.67;;
12222;SDS011;6174;49.058;8.524;2022-08-19T03:50:54;17.37;;;15.90;;
12222;SDS011;6174;49.058;8.524;2022-08-19T03:53:24;17.10;;;15.60;;
12222;SDS011;6174;49.058;8.524;2022-08-19T03:55:52;18.30;;;16.70;;
12222;SDS011;6174;49.058;8.524;2022-08-19T03:58:19;16.90;;;15.50;;
12222;SDS011;6174;49.058;8.524;2022-08-19T04:00:46;18.23;;;16.67;;
12222;SDS011;6174;49.058;8.524;2022-08-19T04:03:13;17.00;;;15.60;;
12222;SDS011;6174;49.058;8.524;2022-08-19T04:05:40;15.80;;;14.60;;
12222;SDS011;6174;49.058;8.524;2022-08-19T04:08:06;16.90;;;15.50;;
12222;SDS011;6174;49.058;8.524;2022-08-19T04:10:36;16.40;;;15.00;;
12222;SDS011;6174;49.058;8.524;2022-08-19T04:13:03;17.53;;;16.07;;
12222;SDS011;6174;49.058;8.524;2022-08-19T04:15:32;17.27;;;15.67;;
12222;SDS011;6174;49.058;8.524;2022-08-19T04:18:04;16.30;;;15.00;;
12222;SDS011;6174;49.058;8.524;2022-08-19T04:20:32;18.40;;;16.80;;
12222;SDS011;6174;49.058;8.524;2022-08-19T04:22:59;17.77;;;16.23;;
12222;SDS011;6174;49.058;8.524;2022-08-19T04:25:26;17.47;;;16.03;;
12222;SDS011;6174;49.058;8.524;2022-08-19T04:27:54;17.80;;;16.20;;
12222;SDS011;6174;49.058;8.524;2022-08-19T04:30:21;18.27;;;16.67;;
12222;SDS011;6174;49.058;8.524;2022-08-19T04:32:47;18.77;;;17.13;;
12222;SDS011;6174;49.058;8.524;2022-08-19T04:35:15;19.60;;;17.90;;
12222;SDS011;6174;49.058;8.524;2022-08-19T04:37:42;19.37;;;17.77;;
12222;SDS011;6174;49.058;8.524;2022-08-19T04:40:09;18.70;;;17.00;;
12222;SDS011;6174;49.058;8.524;2022-08-19T04:42:58;18.53;;;16.93;;
12222;SDS011;6174;49.058;8.524;2022-08-19T04:45:25;18.80;;;17.20;;
12222;SDS011;6174;49.058;8.524;2022-08-19T04:47:54;19.33;;;17.63;;
12222;SDS011;6174;49.058;8.524;2022-08-19T04:50:22;19.10;;;17.50;;
12222;SDS011;6174;49.058;8.524;2022-08-19T04:52:50;18.40;;;16.90;;
12222;SDS011;6174;49.058;8.524;2022-08-19T04:55:17;18.47;;;16.93;;
12222;SDS011;6174;49.058;8.524;2022-08-19T04:57:44;20.20;;;18.50;;
12222;SDS011;6174;49.058;8.524;2022-08-19T05:00:12;19.37;;;17.67;;
12222;SDS011;6174;49.058;8.524;2022-08-19T05:02:39;19.83;;;18.20;;
12222;SDS011;6174;49.058;8.524;2022-08-19T05:05:06;19.57;;;17.97;;
12222;SDS011;6174;49.058;8.524;2022-08-19T05:07:33;19.80;;;18.10;;
12222;SDS011;6174;49.058;8.524;2022-08-19T05:10:01;19.73;;;18.00;;
12222;SDS011;6174;49.058;8.524;2022-08-19T05:12:29;19.67;;;17.87;;
12222;SDS011;6174;49.058;8.524;2022-08-19T05:14:56;19.43;;;17.73;;
12222;SDS011;6174;49.058;8.524;2022-08-19T05:17:25;18.93;;;17.33;;
12222;SDS011;6174;49.058;8.524;2022-08-19T05:19:53;21.33;;;19.53;;
12222;SDS011;6174;49.058;8.524;2022-08-19T05:22:37;19.33;;;17.63;;
12222;SDS011;6174;49.058;8.524;2022-08-19T05:25:06;19.00;;;17.20;;
12222;SDS011;6174;49.058;8.524;2022-08-19T05:27:35;18.77;;;17.07;;
12222;SDS011;6174;49.058;8.524;2022-08-19T05:30:02;18.30;;;16.67;;
12222;SDS011;6174;49.058;8.524;2022-08-19T05:32:31;18.97;;;17.37;;
12222;SDS011;6174;49.058;8.524;2022-08-19T05:34:58;19.20;;;17.40;;
12222;SDS011;6174;49.058;8.524;2022-08-19T05:37:25;18.60;;;16.90;;
12222;SDS011;6174;49.058;8.524;2022-08-19T05:39:52;19.07;;;17.27;;
12222;SDS011;6174;49.058;8.524;2022-08-19T05:42:20;18.57;;;17.00;;
12222;SDS011;6174;49.058;8.524;2022-08-19T05:44:48;18.47;;;16.97;;
12222;SDS011;6174;49.058;8.524;2022-08-19T05:47:15;18.33;;;16.77;;
12222;SDS011;6174;49.058;8.524;2022-08-19T05:49:45;18.30;;;16.53;;
12222;SDS011;6174;49.058;8.524;2022-08-19T05:52:15;17.43;;;15.87;;
12222;SDS011;6174;49.058;8.524;2022-08-19T05:54:41;18.30;;;16.77;;
12222;SDS011;6174;49.058;8.524;2022-08-19T05:57:10;17.20;;;15.73;;
12222;SDS011;6174;49.058;8.524;2022-08-19T05:59:36;17.80;;;16.17;;
12222;SDS011;6174;49.058;8.524;2022-08-19T06:02:04;17.37;;;15.97;;
12222;SDS011;6174;49.058;8.524;2022-08-19T06:04:31;17.70;;;16.23;;
12222;SDS011;6174;49.058;8.524;2022-08-19T06:06:59;17.40;;;15.93;;
12222;SDS011;6174;49.058;8.524;2022-08-19T06:09:27;18.67;;;16.97;;
12222;SDS011;6174;49.058;8.524;2022-08-19T06:11:55;18.30;;;16.63;;
12222;SDS011;6174;49.058;8.524;2022-08-19T06:14:27;18.93;;;17.27;;
12222;SDS011;6174;49.058;8.524;2022-08-19T06:16:56;18.30;;;16.57;;
12222;SDS011;6174;49.058;8.524;2022-08-19T06:19:25;17.57;;;15.97;;
12222;SDS011;6174;49.058;8.524;2022-08-19T06:21:55;19.37;;;17.47;;
12222;SDS011;6174;49.058;8.524;2022-08-19T06:24:25;19.27;;;17.43;;
12222;SDS011;6174;49.058;8.524;2022-08-19T06:26:54;19.03;;;17.07;;
12222;SDS011;6174;49.058;8.524;2022-08-19T06:29:23;17.47;;;15.80;;
12222;SDS011;6174;49.058;8.524;2022-08-19T06:31:52;18.00;;;16.23;;
12222;SDS011;6174;49.058;8.524;2022-08-19T06:34:21;16.20;;;14.57;;
12222;SDS011;6174;49.058;8.524;2022-08-19T06:36:49;15.83;;;14.27;;
12222;SDS011;6174;49.058;8.524;2022-08-19T06:39:18;17.43;;;15.63;;
12222;SDS011;6174;49.058;8.524;2022-08-19T06:41:48;18.07;;;16.33;;
12222;SDS011;6174;49.058;8.524;2022-08-19T06:44:16;16.80;;;15.23;;
12222;SDS011;6174;49.058;8.524;2022-08-19T06:46:44;16.70;;;15.20;;
12222;SDS011;6174;49.058;8.524;2022-08-19T06:49:11;16.73;;;15.20;;
12222;SDS011;6174;49.058;8.524;2022-08-19T06:51:39;17.60;;;16.20;;
12222;SDS011;6174;49.058;8.524;2022-08-19T06:54:07;17.80;;;16.20;;
12222;SDS011;6174;49.058;8.524;2022-08-19T06:56:34;17.40;;;15.93;;
12222;SDS011;6174;49.058;8.524;2022-08-19T06:59:04;21.23;;;15.33;;
12222;SDS011;6174;49.058;8.524;2022-08-19T07:01:34;21.87;;;15.70;;
12222;SDS011;6174;49.058;8.524;2022-08-19T07:04:02;19.67;;;15.17;;
12222;SDS011;6174;49.058;8.524;2022-08-19T07:06:29;16.87;;;15.37;;
12222;SDS011;6174;49.058;8.524;2022-08-19T07:08:57;16.43;;;14.83;;
12222;SDS011;6174;49.058;8.524;2022-08-19T07:11:24;14.67;;;13.47;;
12222;SDS011;6174;49.058;8.524;2022-08-19T07:13:51;15.90;;;14.60;;
12222;SDS011;6174;49.058;8.524;2022-08-19T07:16:21;14.53;;;13.37;;
12222;SDS011;6174;49.058;8.524;2022-08-19T07:18:47;15.17;;;13.70;;
12222;SDS011;6174;49.058;8.524;2022-08-19T07:21:15;14.83;;;13.50;;
12222;SDS011;6174;49.058;8.524;2022-08-19T07:23:44;14.50;;;13.30;;
12222;SDS011;6174;49.058;8.524;2022-08-19T07:26:11;14.23;;;12.97;;
12222;SDS011;6174;49.058;8.524;2022-08-19T07:28:40;14.17;;;12.87;;
12222;SDS011;6174;49.058;8.524;2022-08-19T07:31:09;14.23;;;12.93;;
12222;SDS011;6174;49.058;8.524;2022-08-19T07:33:38;14.30;;;13.00;;
12222;SDS011;6174;49.058;8.524;2022-08-19T07:36:08;13.93;;;12.73;;
12222;SDS011;6174;49.058;8.524;2022-08-19T07:38:38;13.47;;;12.47;;
12222;SDS011;6174;49.058;8.524;2022-08-19T07:41:07;13.50;;;12.33;;
12222;SDS011;6174;49.058;8.524;2022-08-19T07:43:35;14.47;;;12.90;;
12222;SDS011;6174;49.058;8.524;2022-08-19T07:46:03;12.87;;;11.77;;
12222;SDS011;6174;49.058;8.524;2022-08-19T07:48:29;14.37;;;13.17;;
12222;SDS011;6174;49.058;8.524;2022-08-19T07:50:59;13.17;;;11.90;;
12222;SDS011;6174;49.058;8.524;2022-08-19T07:53:29;13.13;;;12.03;;
12222;SDS011;6174;49.058;8.524;2022-08-19T07:55:58;14.20;;;12.90;;
12222;SDS011;6174;49.058;8.524;2022-08-19T07:58:29;12.93;;;11.83;;
12222;SDS011;6174;49.058;8.524;2022-08-19T08:00:58;12.63;;;11.53;;
12222;SDS011;6174;49.058;8.524;2022-08-19T08:03:26;13.10;;;11.97;;
12222;SDS011;6174;49.058;8.524;2022-08-19T08:06:09;12.27;;;11.27;;
12222;SDS011;6174;49.058;8.524;2022-08-19T08:08:53;12.93;;;11.60;;
12222;SDS011;6174;49.058;8.524;2022-08-19T08:11:43;11.97;;;10.97;;
12222;SDS011;6174;49.058;8.524;2022-08-19T08:14:14;11.37;;;10.37;;
12222;SDS011;6174;49.058;8.524;2022-08-19T08:16:42;11.63;;;10.67;;
12222;SDS011;6174;49.058;8.524;2022-08-19T08:19:10;11.63;;;10.67;;
12222;SDS011;6174;49.058;8.524;2022-08-19T08:21:41;10.63;;;9.73;;
12222;SDS011;6174;49.058;8.524;2022-08-19T08:24:08;10.53;;;9.67;;
12222;SDS011;6174;49.058;8.524;2022-08-19T08:26:36;11.17;;;10.10;;
12222;SDS011;6174;49.058;8.524;2022-08-19T08:29:03;10.57;;;9.37;;
12222;SDS011;6174;49.058;8.524;2022-08-19T08:31:33;10.40;;;9.50;;
12222;SDS011;6174;49.058;8.524;2022-08-19T08:34:00;10.33;;;9.43;;
12222;SDS011;6174;49.058;8.524;2022-08-19T08:36:27;10.90;;;9.90;;
12222;SDS011;6174;49.058;8.524;2022-08-19T08:38:55;10.10;;;9.20;;
12222;SDS011;6174;49.058;8.524;2022-08-19T08:41:23;9.20;;;8.43;;
12222;SDS011;6174;49.058;8.524;2022-08-19T08:43:56;10.00;;;9.17;;
12222;SDS011;6174;49.058;8.524;2022-08-19T08:46:24;9.60;;;7.90;;
12222;SDS011;6174;49.058;8.524;2022-08-19T08:48:58;9.37;;;8.57;;
12222;SDS011;6174;49.058;8.524;2022-08-19T08:51:37;9.23;;;8.33;;
12222;SDS011;6174;49.058;8.524;2022-08-19T08:54:09;9.70;;;8.70;;
12222;SDS011;6174;49.058;8.524;2022-08-19T08:56:39;9.33;;;8.17;;
12222;SDS011;6174;49.058;8.524;2022-08-19T08:59:10;8.30;;;7.60;;
12222;SDS011;6174;49.058;8.524;2022-08-19T09:01:42;7.60;;;7.00;;
12222;SDS011;6174;49.058;8.524;2022-08-19T09:04:09;8.20;;;7.50;;
12222;SDS011;6174;49.058;8.524;2022-08-19T09:06:40;7.40;;;6.80;;
12222;SDS011;6174;49.058;8.524;2022-08-19T09:09:16;7.70;;;6.90;;
12222;SDS011;6174;49.058;8.524;2022-08-19T09:11:55;7.63;;;7.03;;
12222;SDS011;6174;49.058;8.524;2022-08-19T09:14:32;8.10;;;6.77;;
12222;SDS011;6174;49.058;8.524;2022-08-19T09:17:06;7.32;;;6.60;;
12222;SDS011;6174;49.058;8.524;2022-08-19T09:19:34;7.20;;;6.60;;
12222;SDS011;6174;49.058;8.524;2022-08-19T09:22:02;8.48;;;7.68;;
12222;SDS011;6174;49.058;8.524;2022-08-19T09:24:31;7.75;;;7.15;;
12222;SDS011;6174;49.058;8.524;2022-08-19T09:26:58;7.13;;;6.53;;
12222;SDS011;6174;49.058;8.524;2022-08-19T09:29:25;8.77;;;7.97;;
12222;SDS011;6174;49.058;8.524;2022-08-19T09:31:51;7.10;;;6.40;;
12222;SDS011;6174;49.058;8.524;2022-08-19T09:34:18;8.73;;;7.88;;
12222;SDS011;6174;49.058;8.524;2022-08-19T09:36:45;8.82;;;8.13;;
12222;SDS011;6174;49.058;8.524;2022-08-19T09:39:12;8.40;;;7.70;;
12222;SDS011;6174;49.058;8.524;2022-08-19T09:41:40;8.40;;;7.40;;
12222;SDS011;6174;49.058;8.524;2022-08-19T09:44:07;8.27;;;7.45;;
12222;SDS011;6174;49.058;8.524;2022-08-19T09:46:33;7.60;;;6.90;;
12222;SDS011;6174;49.058;8.524;2022-08-19T09:49:01;7.38;;;6.57;;
12222;SDS011;6174;49.058;8.524;2022-08-19T09:51:29;7.38;;;6.78;;
12222;SDS011;6174;49.058;8.524;2022-08-19T09:53:58;7.60;;;6.80;;
12222;SDS011;6174;49.058;8.524;2022-08-19T09:56:27;6.90;;;6.30;;
12222;SDS011;6174;49.058;8.524;2022-08-19T09:58:56;7.35;;;6.50;;
12222;SDS011;6174;49.058;8.524;2022-08-19T10:01:25;6.88;;;6.25;;
12222;SDS011;6174;49.058;8.524;2022-08-19T10:03:54;6.05;;;5.63;;
12222;SDS011;6174;49.058;8.524;2022-08-19T10:06:22;5.93;;;5.43;;
12222;SDS011;6174;49.058;8.524;2022-08-19T10:08:51;8.45;;;6.78;;
12222;SDS011;6174;49.058;8.524;2022-08-19T10:11:19;6.70;;;6.20;;
12222;SDS011;6174;49.058;8.524;2022-08-19T10:13:46;6.78;;;6.20;;
12222;SDS011;6174;49.058;8.524;2022-08-19T10:16:16;6.13;;;5.68;;
12222;SDS011;6174;49.058;8.524;2022-08-19T10:18:44;5.82;;;5.32;;
12222;SDS011;6174;49.058;8.524;2022-08-19T10:21:13;5.60;;;5.10;;
12222;SDS011;6174;49.058;8.524;2022-08-19T10:23:43;6.53;;;5.65;;
12222;SDS011;6174;49.058;8.524;2022-08-19T10:26:11;6.30;;;5.63;;
12222;SDS011;6174;49.058;8.524;2022-08-19T10:28:40;5.20;;;4.70;;
12222;SDS011;6174;49.058;8.524;2022-08-19T10:31:07;5.78;;;5.28;;
12222;SDS011;6174;49.058;8.524;2022-08-19T10:33:38;6.22;;;5.72;;
12222;SDS011;6174;49.058;8.524;2022-08-19T10:36:07;7.20;;;5.65;;
12222;SDS011;6174;49.058;8.524;2022-08-19T10:38:36;6.03;;;5.53;;
12222;SDS011;6174;49.058;8.524;2022-08-19T10:41:07;6.22;;;5.22;;
12222;SDS011;6174;49.058;8.524;2022-08-19T10:43:34;6.97;;;5.95;;
12222;SDS011;6174;49.058;8.524;2022-08-19T10:46:03;6.22;;;5.72;;
12222;SDS011;6174;49.058;8.524;2022-08-19T10:48:30;5.63;;;5.13;;
12222;SDS011;6174;49.058;8.524;2022-08-19T10:50:59;6.50;;;6.00;;
12222;SDS011;6174;49.058;8.524;2022-08-19T10:53:43;6.30;;;5.70;;
12222;SDS011;6174;49.058;8.524;2022-08-19T10:56:10;6.07;;;5.57;;
12222;SDS011;6174;49.058;8.524;2022-08-19T10:58:54;6.55;;;6.05;;
12222;SDS011;6174;49.058;8.524;2022-08-19T11:01:23;5.78;;;5.30;;
12222;SDS011;6174;49.058;8.524;2022-08-19T11:03:50;6.13;;;5.50;;
12222;SDS011;6174;49.058;8.524;2022-08-19T11:06:19;5.40;;;5.00;;
12222;SDS011;6174;49.058;8.524;2022-08-19T11:08:46;5.45;;;5.05;;
12222;SDS011;6174;49.058;8.524;2022-08-19T11:11:13;6.22;;;5.68;;
12222;SDS011;6174;49.058;8.524;2022-08-19T11:13:40;6.43;;;5.80;;
12222;SDS011;6174;49.058;8.524;2022-08-19T11:16:11;6.57;;;5.93;;
12222;SDS011;6174;49.058;8.524;2022-08-19T11:18:41;6.28;;;5.80;;
12222;SDS011;6174;49.058;8.524;2022-08-19T11:21:10;6.13;;;5.72;;
12222;SDS011;6174;49.058;8.524;2022-08-19T11:23:40;5.78;;;5.38;;
12222;SDS011;6174;49.058;8.524;2022-08-19T11:26:08;6.63;;;6.05;;
12222;SDS011;6174;49.058;8.524;2022-08-19T11:28:35;6.55;;;5.93;;
12222;SDS011;6174;49.058;8.524;2022-08-19T11:31:11;6.53;;;5.93;;
12222;SDS011;6174;49.058;8.524;2022-08-19T11:33:51;6.40;;;5.82;;
12222;SDS011;6174;49.058;8.524;2022-08-19T11:36:19;6.43;;;6.03;;
12222;SDS011;6174;49.058;8.524;2022-08-19T11:38:55;5.75;;;5.32;;
12222;SDS011;6174;49.058;8.524;2022-08-19T11:41:33;5.65;;;5.25;;
12222;SDS011;6174;49.058;8.524;2022-08-19T11:44:03;5.93;;;5.53;;
12222;SDS011;6174;49.058;8.524;2022-08-19T11:46:42;5.85;;;5.40;;
12222;SDS011;6174;49.058;8.524;2022-08-19T11:49:13;6.20;;;5.63;;
12222;SDS011;6174;49.058;8.524;2022-08-19T11:51:51;6.07;;;5.68;;
12222;SDS011;6174;49.058;8.524;2022-08-19T11:54:27;6.22;;;5.72;;
12222;SDS011;6174;49.058;8.524;2022-08-19T11:57:15;5.95;;;5.55;;
12222;SDS011;6174;49.058;8.524;2022-08-19T12:00:05;6.38;;;5.88;;
12222;SDS011;6174;49.058;8.524;2022-08-19T12:02:59;5.95;;;5.50;;
12222;SDS011;6174;49.058;8.524;2022-08-19T12:05:45;6.45;;;5.85;;
12222;SDS011;6174;49.058;8.524;2022-08-19T12:08:32;6.78;;;5.70;;
12222;SDS011;6174;49.058;8.524;2022-08-19T12:11:05;6.15;;;5.75;;
12222;SDS011;6174;49.058;8.524;2022-08-19T12:16:21;6.60;;;6.10;;
12222;SDS011;6174;49.058;8.524;2022-08-19T12:18:53;6.50;;;5.90;;
12222;SDS011;6174;49.058;8.524;2022-08-19T12:21:28;6.80;;;6.30;;
12222;SDS011;6174;49.058;8.524;2022-08-19T12:24:03;6.40;;;5.93;;
12222;SDS011;6174;49.058;8.524;2022-08-19T12:36:10;7.03;;;6.53;;
12222;SDS011;6174;49.058;8.524;2022-08-19T12:38:42;7.50;;;6.90;;
12222;SDS011;6174;49.058;8.524;2022-08-19T12:41:18;7.32;;;6.72;;
12222;SDS011;6174;49.058;8.524;2022-08-19T12:43:49;7.30;;;6.70;;
12222;SDS011;6174;49.058;8.524;2022-08-19T12:53:40;6.93;;;6.43;;
12222;SDS011;6174;49.058;8.524;2022-08-19T12:56:27;6.50;;;6.00;;
12222;SDS011;6174;49.058;8.524;2022-08-19T13:02:20;6.95;;;6.55;;
12222;SDS011;6174;49.058;8.524;2022-08-19T13:04:47;6.68;;;6.10;;
12222;SDS011;6174;49.058;8.524;2022-08-19T13:07:32;6.93;;;6.43;;
12222;SDS011;6174;49.058;8.524;2022-08-19T13:10:09;7.40;;;6.18;;
12222;SDS011;6174;49.058;8.524;2022-08-19T13:12:39;6.43;;;5.93;;
12222;SDS011;6174;49.058;8.524;2022-08-19T13:18:08;6.70;;;6.20;;
12222;SDS011;6174;49.058;8.524;2022-08-19T13:21:06;7.00;;;6.40;;
12222;SDS011;6174;49.058;8.524;2022-08-19T13:23:40;6.53;;;6.13;;
12222;SDS011;6174;49.058;8.524;2022-08-19T13:33:27;6.65;;;6.05;;
12222;SDS011;6174;49.058;8.524;2022-08-19T13:35:56;6.90;;;6.40;;
12222;SDS011;6174;49.058;8.524;2022-08-19T13:38:25;6.90;;;6.28;;
12222;SDS011;6174;49.058;8.524;2022-08-19T13:40:53;6.28;;;5.85;;
12222;SDS011;6174;49.058;8.524;2022-08-19T13:43:22;6.90;;;6.40;;
12222;SDS011;6174;49.058;8.524;2022-08-19T13:45:52;6.70;;;6.30;;
12222;SDS011;6174;49.058;8.524;2022-08-19T13:48:21;6.70;;;6.20;;
12222;SDS011;6174;49.058;8.524;2022-08-19T13:50:50;6.68;;;6.18;;
12222;SDS011;6174;49.058;8.524;2022-08-19T13:53:17;6.82;;;6.38;;
12222;SDS011;6174;49.058;8.524;2022-08-19T13:55:44;7.18;;;6.57;;
12222;SDS011;6174;49.058;8.524;2022-08-19T13:58:11;6.60;;;6.18;;
12222;SDS011;6174;49.058;8.524;2022-08-19T14:00:40;6.72;;;6.30;;
12222;SDS011;6174;49.058;8.524;2022-08-19T14:03:08;7.10;;;6.60;;
12222;SDS011;6174;49.058;8.524;2022-08-19T14:05:36;5.93;;;5.53;;
12222;SDS011;6174;49.058;8.524;2022-08-19T14:08:04;6.18;;;5.60;;
12222;SDS011;6174;49.058;8.524;2022-08-19T14:10:32;5.28;;;4.85;;
12222;SDS011;6174;49.058;8.524;2022-08-19T14:12:59;4.30;;;4.00;;
12222;SDS011;6174;49.058;8.524;2022-08-19T14:15:28;4.82;;;4.43;;
12222;SDS011;6174;49.058;8.524;2022-08-19T14:17:56;4.80;;;4.40;;
12222;SDS011;6174;49.058;8.524;2022-08-19T14:20:23;4.85;;;4.45;;
12222;SDS011;6174;49.058;8.524;2022-08-19T14:22:50;4.80;;;4.50;;
12222;SDS011;6174;49.058;8.524;2022-08-19T14:25:20;4.63;;;4.32;;
12222;SDS011;6174;49.058;8.524;2022-08-19T14:27:48;4.30;;;3.88;;
12222;SDS011;6174;49.058;8.524;2022-08-19T14:30:15;4.45;;;4.07;;
12222;SDS011;6174;49.058;8.524;2022-08-19T14:32:45;4.40;;;3.90;;
12222;SDS011;6174;49.058;8.524;2022-08-19T14:35:13;4.32;;;3.92;;
12222;SDS011;6174;49.058;8.524;2022-08-19T14:37:41;4.20;;;3.90;;
12222;SDS011;6174;49.058;8.524;2022-08-19T14:40:09;3.65;;;3.38;;
12222;SDS011;6174;49.058;8.524;2022-08-19T14:42:38;3.50;;;3.30;;
12222;SDS011;6174;49.058;8.524;2022-08-19T14:45:06;3.72;;;3.53;;
12222;SDS011;6174;49.058;8.524;2022-08-19T14:47:34;3.60;;;3.40;;
12222;SDS011;6174;49.058;8.524;2022-08-19T14:50:01;4.07;;;3.70;;
12222;SDS011;6174;49.058;8.524;2022-08-19T14:52:27;3.42;;;3.17;;
12222;SDS011;6174;49.058;8.524;2022-08-19T14:54:54;3.55;;;3.28;;
12222;SDS011;6174;49.058;8.524;2022-08-19T14:57:21;4.10;;;3.80;;
12222;SDS011;6174;49.058;8.524;2022-08-19T14:59:49;3.90;;;3.60;;
12222;SDS011;6174;49.058;8.524;2022-08-19T15:02:16;5.05;;;4.10;;
12222;SDS011;6174;49.058;8.524;2022-08-19T15:04:43;3.78;;;3.47;;
12222;SDS011;6174;49.058;8.524;2022-08-19T15:07:09;3.60;;;3.40;;
12222;SDS011;6174;49.058;8.524;2022-08-19T15:09:36;3.75;;;3.47;;
12222;SDS011;6174;49.058;8.524;2022-08-19T15:12:03;6.15;;;3.78;;
12222;SDS011;6174;49.058;8.524;2022-08-19T15:14:31;3.90;;;3.50;;
12222;SDS011;6174;49.058;8.524;2022-08-19T15:17:01;4.35;;;3.78;;
12222;SDS011;6174;49.058;8.524;2022-08-19T15:19:28;4.00;;;3.80;;
12222;SDS011;6174;49.058;8.524;2022-08-19T15:21:55;4.20;;;3.90;;
12222;SDS011;6174;49.058;8.524;2022-08-19T15:24:22;3.58;;;3.38;;
12222;SDS011;6174;49.058;8.524;2022-08-19T15:26:50;4.85;;;4.45;;
12222;SDS011;6174;49.058;8.524;2022-08-19T15:29:18;4.20;;;3.90;;
12222;SDS011;6174;49.058;8.524;2022-08-19T15:31:45;5.00;;;3.78;;
12222;SDS011;6174;49.058;8.524;2022-08-19T15:34:13;3.95;;;3.65;;
12222;SDS011;6174;49.058;8.524;2022-08-19T15:36:40;4.25;;;3.95;;
12222;SDS011;6174;49.058;8.524;2022-08-19T15:39:06;4.38;;;3.90;;
12222;SDS011;6174;49.058;8.524;2022-08-19T15:41:35;4.47;;;3.53;;
12222;SDS011;6174;49.058;8.524;2022-08-19T15:44:07;4.18;;;3.75;;
12222;SDS011;6174;49.058;8.524;2022-08-19T15:46:36;4.10;;;3.88;;
12222;SDS011;6174;49.058;8.524;2022-08-19T15:49:05;4.13;;;3.83;;
12222;SDS011;6174;49.058;8.524;2022-08-19T15:51:34;4.97;;;4.68;;
12222;SDS011;6174;49.058;8.524;2022-08-19T15:54:03;4.82;;;4.07;;
12222;SDS011;6174;49.058;8.524;2022-08-19T15:56:32;4.75;;;4.40;;
12222;SDS011;6174;49.058;8.524;2022-08-19T15:59:31;4.30;;;4.00;;
12222;SDS011;6174;49.058;8.524;2022-08-19T16:02:17;4.80;;;4.40;;
12222;SDS011;6174;49.058;8.524;2022-08-19T16:05:04;8.73;;;7.82;;
12222;SDS011;6174;49.058;8.524;2022-08-19T16:07:51;4.65;;;4.35;;
12222;SDS011;6174;49.058;8.524;2022-08-19T16:10:18;20.13;;;18.23;;
12222;SDS011;6174;49.058;8.524;2022-08-19T16:12:45;8.85;;;8.00;;
12222;SDS011;6174;49.058;8.524;2022-08-19T16:15:12;4.25;;;3.85;;
12222;SDS011;6174;49.058;8.524;2022-08-19T16:17:39;4.10;;;3.72;;
12222;SDS011;6174;49.058;8.524;2022-08-19T16:20:07;4.25;;;3.92;;
12222;SDS011;6174;49.058;8.524;2022-08-19T16:22:35;3.85;;;3.47;;
12222;SDS011;6174;49.058;8.524;2022-08-19T16:25:05;3.78;;;3.50;;
12222;SDS011;6174;49.058;8.524;2022-08-19T16:27:33;4.10;;;3.80;;
12222;SDS011;6174;49.058;8.524;2022-08-19T16:30:00;4.20;;;3.75;;
12222;SDS011;6174;49.058;8.524;2022-08-19T16:32:29;3.92;;;3.63;;
12222;SDS011;6174;49.058;8.524;2022-08-19T16:34:55;3.83;;;3.50;;
12222;SDS011;6174;49.058;8.524;2022-08-19T16:37:23;5.03;;;4.63;;
12222;SDS011;6174;49.058;8.524;2022-08-19T16:39:49;4.00;;;3.70;;
12222;SDS011;6174;49.058;8.524;2022-08-19T16:42:18;4.55;;;4.10;;
12222;SDS011;6174;49.058;8.524;2022-08-19T16:44:45;4.18;;;3.88;;